createdAt,value
2019-01-18T00:01:52.527Z,5.53
2019-01-18T00:04:22.783Z,9.73
2019-01-18T00:06:53.179Z,5.33
2019-01-18T00:09:22.860Z,8.60
2019-01-18T00:11:53.122Z,4.77
2019-01-18T00:14:22.784Z,5.50
2019-01-18T00:16:53.011Z,7.40
2019-01-18T00:19:23.356Z,9.77
2019-01-18T00:21:53.657Z,6.60
2019-01-18T00:24:23.344Z,6.33
2019-01-18T00:26:53.576Z,6.57
2019-01-18T00:29:29.468Z,5.70
2019-01-18T00:31:55.106Z,6.73
2019-01-18T00:34:25.422Z,6.30
2019-01-18T00:36:55.744Z,7.50
2019-01-18T00:39:25.391Z,3.98
2019-01-18T00:41:55.607Z,7.87
2019-01-18T00:44:25.315Z,10.33
2019-01-18T00:46:55.560Z,6.67
2019-01-18T00:49:25.231Z,12.78
2019-01-18T00:51:55.463Z,6.47
2019-01-18T00:54:25.119Z,6.90
2019-01-18T00:56:54.698Z,7.10
2019-01-18T00:59:24.937Z,6.23
2019-01-18T01:01:55.259Z,5.00
2019-01-18T01:04:25.578Z,8.27
2019-01-18T01:06:55.252Z,9.97
2019-01-18T01:09:25.499Z,5.03
2019-01-18T01:11:55.797Z,5.47
2019-01-18T01:14:26.284Z,5.17
2019-01-18T01:16:55.976Z,4.10
2019-01-18T01:19:26.207Z,7.50
2019-01-18T01:21:55.864Z,5.90
2019-01-18T01:24:26.103Z,7.03
2019-01-18T01:26:55.796Z,10.13
2019-01-18T01:29:26.004Z,5.50
2019-01-18T01:31:55.788Z,7.13
2019-01-18T01:34:26.113Z,9.43
2019-01-18T01:36:55.804Z,6.30
2019-01-18T01:39:26.123Z,4.63
2019-01-18T01:41:56.464Z,5.80
2019-01-18T01:44:26.780Z,7.15
2019-01-18T01:46:56.452Z,8.83
2019-01-18T01:49:26.023Z,10.43
2019-01-18T01:51:56.284Z,8.43
2019-01-18T01:54:25.938Z,5.33
2019-01-18T01:56:55.549Z,5.90
2019-01-18T01:59:25.793Z,6.07
2019-01-18T02:01:55.456Z,6.17
2019-01-18T02:04:25.672Z,8.07
2019-01-18T02:06:55.360Z,6.90
2019-01-18T02:09:25.596Z,7.90
2019-01-18T02:11:55.287Z,4.77
2019-01-18T02:14:25.509Z,7.93
2019-01-18T02:16:55.204Z,7.43
2019-01-18T02:19:25.427Z,6.83
2019-01-18T02:21:55.752Z,6.17
2019-01-18T02:24:26.048Z,5.50
2019-01-18T02:26:55.719Z,6.93
2019-01-18T02:29:25.295Z,6.23
2019-01-18T02:31:55.587Z,8.50
2019-01-18T02:34:25.883Z,4.63
2019-01-18T02:36:56.215Z,4.43
2019-01-18T02:39:25.892Z,8.97
2019-01-18T02:41:56.161Z,4.43
2019-01-18T02:44:26.545Z,5.60
2019-01-18T02:46:56.877Z,6.77
2019-01-18T02:49:26.562Z,6.83
2019-01-18T02:51:56.818Z,7.77
2019-01-18T02:54:26.472Z,7.50
2019-01-18T02:56:56.708Z,8.10
2019-01-18T02:59:26.407Z,5.78
2019-01-18T03:01:56.640Z,7.40
2019-01-18T03:04:27.460Z,7.73
2019-01-18T03:06:57.211Z,7.20
2019-01-18T03:09:26.812Z,7.13
2019-01-18T03:11:56.388Z,9.53
2019-01-18T03:14:26.592Z,8.80
2019-01-18T03:16:56.293Z,4.03
2019-01-18T03:19:25.852Z,9.43
2019-01-18T03:21:56.095Z,8.03
2019-01-18T03:24:26.397Z,5.47
2019-01-18T03:26:56.063Z,8.43
2019-01-18T03:29:25.641Z,6.53
2019-01-18T03:31:55.903Z,7.57
2019-01-18T03:34:25.571Z,7.17
2019-01-18T03:36:55.815Z,8.30
2019-01-18T03:39:26.220Z,4.10
2019-01-18T03:41:56.623Z,4.47
2019-01-18T03:44:26.923Z,4.37
2019-01-18T03:46:57.268Z,9.93
2019-01-18T03:49:26.928Z,9.23
2019-01-18T03:51:57.161Z,6.57
2019-01-18T03:54:27.472Z,4.97
2019-01-18T03:56:57.159Z,6.00
2019-01-18T03:59:26.735Z,9.23
2019-01-18T04:01:56.964Z,6.33
2019-01-18T04:04:27.889Z,2.87
2019-01-18T04:06:57.659Z,2.73
2019-01-18T04:09:27.901Z,2.47
2019-01-18T04:11:57.568Z,4.17
2019-01-18T04:14:27.135Z,4.37
2019-01-18T04:16:57.344Z,3.60
2019-01-18T04:19:27.701Z,5.27
2019-01-18T04:21:57.339Z,3.20
2019-01-18T04:24:27.556Z,4.80
2019-01-18T04:26:57.228Z,4.80
2019-01-18T04:29:26.811Z,2.83
2019-01-18T04:31:57.057Z,2.80
2019-01-18T04:34:27.374Z,1.67
2019-01-18T04:36:57.058Z,3.90
2019-01-18T04:39:26.611Z,4.67
2019-01-18T04:41:56.841Z,3.37
2019-01-18T04:44:27.157Z,6.97
2019-01-18T04:46:57.476Z,2.70
2019-01-18T04:49:27.152Z,2.40
2019-01-18T04:51:57.393Z,5.40
2019-01-18T04:54:27.723Z,2.13
2019-01-18T04:56:57.388Z,5.63
2019-01-18T04:59:26.955Z,6.17
2019-01-18T05:01:57.190Z,5.40
2019-01-18T05:04:27.517Z,6.40
2019-01-18T05:06:57.180Z,6.47
2019-01-18T05:09:26.764Z,5.87
2019-01-18T05:11:57.025Z,2.47
2019-01-18T05:14:27.354Z,4.20
2019-01-18T05:16:57.680Z,2.97
2019-01-18T05:19:27.353Z,4.15
2019-01-18T05:21:57.591Z,2.73
2019-01-18T05:24:28.110Z,3.55
2019-01-18T05:26:58.444Z,9.20
2019-01-18T05:29:28.130Z,4.35
2019-01-18T05:31:58.365Z,6.70
2019-01-18T05:34:28.100Z,2.30
2019-01-18T05:36:58.340Z,5.93
2019-01-18T05:39:27.999Z,2.63
2019-01-18T05:41:58.234Z,5.62
2019-01-18T05:44:27.885Z,4.87
2019-01-18T05:46:58.142Z,3.53
2019-01-18T05:49:27.800Z,3.60
2019-01-18T05:51:57.364Z,5.70
2019-01-18T05:54:26.944Z,3.47
2019-01-18T05:56:57.160Z,6.17
2019-01-18T05:59:26.835Z,3.93
2019-01-18T06:01:57.084Z,5.70
2019-01-18T06:04:27.387Z,6.30
2019-01-18T06:06:57.720Z,2.43
2019-01-18T06:09:27.412Z,3.05
2019-01-18T06:11:57.676Z,8.23
2019-01-18T06:14:27.986Z,4.00
2019-01-18T06:16:58.321Z,3.83
2019-01-18T06:19:28.661Z,3.98
2019-01-18T06:21:58.984Z,2.90
2019-01-18T06:24:28.708Z,5.43
2019-01-18T06:26:58.268Z,5.00
2019-01-18T06:29:27.836Z,2.00
2019-01-18T06:31:57.456Z,4.13
2019-01-18T06:34:27.748Z,3.03
2019-01-18T06:36:58.112Z,6.60
2019-01-18T06:39:28.434Z,2.75
2019-01-18T06:41:58.124Z,6.23
2019-01-18T06:44:28.370Z,7.53
2019-01-18T06:46:58.044Z,4.30
2019-01-18T06:49:28.296Z,4.30
2019-01-18T06:51:57.941Z,4.90
2019-01-18T06:54:28.228Z,4.83
2019-01-18T06:56:57.888Z,5.07
2019-01-18T06:59:27.467Z,6.73
2019-01-18T07:01:56.979Z,2.80
2019-01-18T07:04:27.224Z,5.57
2019-01-18T07:06:56.912Z,5.23
2019-01-18T07:09:27.132Z,4.37
2019-01-18T07:11:56.807Z,7.90
2019-01-18T07:14:27.071Z,9.27
2019-01-18T07:16:56.775Z,4.60
2019-01-18T07:19:27.001Z,3.95
2019-01-18T07:21:56.675Z,9.10
2019-01-18T07:24:26.932Z,7.47
2019-01-18T07:26:56.626Z,5.10
2019-01-18T07:29:26.864Z,6.47
2019-01-18T07:31:56.592Z,6.13
2019-01-18T07:34:26.816Z,9.97
2019-01-18T07:36:56.552Z,7.07
2019-01-18T07:39:26.124Z,5.83
2019-01-18T07:41:56.352Z,7.50
2019-01-18T07:44:26.680Z,5.63
2019-01-18T07:46:56.336Z,5.17
2019-01-18T07:49:25.961Z,7.63
2019-01-18T07:51:56.244Z,10.30
2019-01-18T07:54:25.953Z,87.97
2019-01-18T07:56:55.532Z,94.00
2019-01-18T07:59:25.138Z,10.93
2019-01-18T08:01:55.433Z,5.87
2019-01-18T08:04:25.103Z,8.53
2019-01-18T08:06:57.095Z,12.80
2019-01-18T08:09:26.689Z,12.30
2019-01-18T08:11:56.936Z,14.57
2019-01-18T08:14:27.264Z,10.35
2019-01-18T08:16:56.960Z,8.33
2019-01-18T08:19:26.537Z,8.17
2019-01-18T08:21:59.310Z,6.57
2019-01-18T08:24:28.987Z,11.30
2019-01-18T08:26:58.592Z,10.97
2019-01-18T08:29:28.839Z,7.47
2019-01-18T08:31:59.164Z,6.53
2019-01-18T08:34:28.888Z,10.15
2019-01-18T08:36:58.486Z,10.73
2019-01-18T08:39:28.736Z,9.03
2019-01-18T08:41:59.073Z,10.33
2019-01-18T08:44:28.780Z,9.38
2019-01-18T08:46:58.378Z,9.47
2019-01-18T08:49:27.956Z,12.87
2019-01-18T08:51:58.196Z,10.43
2019-01-18T08:54:28.520Z,9.67
2019-01-18T08:56:58.304Z,6.53
2019-01-18T08:59:27.868Z,7.17
2019-01-18T09:01:57.456Z,8.83
2019-01-18T09:04:27.039Z,9.47
2019-01-18T09:06:57.292Z,13.17
2019-01-18T09:09:27.069Z,17.53
2019-01-18T09:11:57.319Z,9.87
2019-01-18T09:14:26.999Z,22.20
2019-01-18T09:16:58.174Z,7.70
2019-01-18T09:19:27.833Z,9.17
2019-01-18T09:21:58.074Z,9.97
2019-01-18T09:24:27.746Z,10.88
2019-01-18T09:26:58.043Z,7.60
2019-01-18T09:29:27.711Z,10.13
2019-01-18T09:31:57.965Z,7.53
2019-01-18T09:34:27.672Z,10.50
2019-01-18T09:36:57.255Z,11.27
2019-01-18T09:39:26.824Z,9.23
2019-01-18T09:41:57.118Z,7.93
2019-01-18T09:44:27.469Z,11.47
2019-01-18T09:46:57.147Z,9.23
2019-01-18T09:49:26.776Z,10.23
2019-01-18T09:51:56.382Z,12.33
2019-01-18T09:54:25.969Z,13.47
2019-01-18T09:56:55.564Z,9.90
2019-01-18T09:59:25.812Z,11.77
2019-01-18T10:01:56.133Z,5.53
2019-01-18T10:04:25.815Z,4.65
2019-01-18T10:06:55.420Z,8.17
2019-01-18T10:09:25.636Z,9.97
2019-01-18T10:11:55.360Z,7.27
2019-01-18T10:14:25.591Z,6.83
2019-01-18T10:16:55.369Z,6.13
2019-01-18T10:19:25.584Z,13.28
2019-01-18T10:21:55.387Z,5.83
2019-01-18T10:24:25.617Z,9.17
2019-01-18T10:26:55.295Z,6.77
2019-01-18T10:29:28.221Z,5.90
2019-01-18T10:31:57.536Z,8.80
2019-01-18T10:34:27.904Z,9.43
2019-01-18T10:36:57.567Z,13.17
2019-01-18T10:39:27.198Z,8.17
2019-01-18T10:41:57.423Z,9.83
2019-01-18T10:44:27.092Z,8.33
2019-01-18T10:46:56.697Z,10.70
2019-01-18T10:49:26.255Z,8.68
2019-01-18T10:51:55.899Z,10.33
2019-01-18T10:54:25.492Z,5.80
2019-01-18T10:56:55.080Z,8.27
2019-01-18T10:59:25.320Z,10.17
2019-01-18T11:02:00.678Z,8.50
2019-01-18T11:04:26.276Z,8.50
2019-01-18T11:06:56.525Z,7.97
2019-01-18T11:09:26.855Z,9.93
2019-01-18T11:11:57.273Z,10.93
2019-01-18T11:14:26.940Z,6.50
2019-01-18T11:16:57.175Z,6.03
2019-01-18T11:19:26.848Z,4.57
2019-01-18T11:21:57.099Z,5.87
2019-01-18T11:24:27.436Z,7.87
2019-01-18T11:26:57.103Z,5.93
2019-01-18T11:29:26.696Z,8.23
2019-01-18T11:31:56.944Z,6.07
2019-01-18T11:34:26.628Z,7.90
2019-01-18T11:36:58.217Z,6.73
2019-01-18T11:39:28.023Z,6.72
2019-01-18T11:41:57.636Z,7.23
2019-01-18T11:44:27.215Z,7.10
2019-01-18T11:46:57.459Z,6.27
2019-01-18T11:49:27.141Z,8.50
2019-01-18T11:51:57.404Z,11.70
2019-01-18T11:54:27.063Z,9.30
2019-01-18T11:56:57.304Z,8.87
2019-01-18T11:59:26.963Z,6.95
2019-01-18T12:01:57.252Z,5.47
2019-01-18T12:04:26.917Z,3.37
2019-01-18T12:06:57.137Z,6.23
2019-01-18T12:09:26.871Z,4.37
2019-01-18T12:11:56.448Z,9.07
2019-01-18T12:14:26.030Z,4.20
2019-01-18T12:16:55.640Z,14.03
2019-01-18T12:19:25.196Z,8.83
2019-01-18T12:21:54.776Z,7.50
2019-01-18T12:24:24.368Z,7.07
2019-01-18T12:26:54.629Z,8.90
2019-01-18T12:29:24.310Z,4.30
2019-01-18T12:31:54.544Z,7.47
2019-01-18T12:34:24.232Z,11.20
2019-01-18T12:36:58.993Z,9.37
2019-01-18T12:39:26.399Z,8.53
2019-01-18T12:41:56.724Z,6.87
2019-01-18T12:44:27.149Z,6.90
2019-01-18T12:46:57.451Z,6.77
2019-01-18T12:49:27.784Z,8.13
2019-01-18T12:51:58.245Z,6.80
2019-01-18T12:54:28.588Z,4.97
2019-01-18T12:56:58.326Z,7.73
2019-01-18T12:59:27.896Z,7.43
2019-01-18T13:01:58.185Z,9.00
2019-01-18T13:04:27.863Z,6.27
2019-01-18T13:06:58.100Z,9.10
2019-01-18T13:09:27.756Z,8.13
2019-01-18T13:11:57.450Z,8.23
2019-01-18T13:14:27.242Z,6.23
2019-01-18T13:16:56.817Z,8.90
2019-01-18T13:19:26.399Z,5.13
2019-01-18T13:21:56.699Z,3.67
2019-01-18T13:24:26.476Z,4.63
2019-01-18T13:26:56.744Z,3.40
2019-01-18T13:29:27.072Z,7.05
2019-01-18T13:31:57.403Z,5.33
2019-01-18T13:34:27.091Z,6.47
2019-01-18T13:36:57.335Z,7.83
2019-01-18T13:39:27.680Z,5.27
2019-01-18T13:41:58.009Z,5.73
2019-01-18T13:44:28.356Z,4.73
2019-01-18T13:46:58.673Z,38.80
2019-01-18T13:49:28.391Z,8.47
2019-01-18T13:51:57.968Z,5.67
2019-01-18T13:54:27.577Z,10.57
2019-01-18T13:56:57.808Z,4.47
2019-01-18T13:59:28.152Z,5.03
2019-01-18T14:01:57.860Z,9.53
2019-01-18T14:04:28.191Z,5.00
2019-01-18T14:06:58.536Z,7.03
2019-01-18T14:09:28.169Z,7.57
2019-01-18T14:11:58.425Z,5.93
2019-01-18T14:14:28.103Z,6.85
2019-01-18T14:16:58.358Z,8.90
2019-01-18T14:19:28.019Z,13.93
2019-01-18T14:21:58.280Z,7.97
2019-01-18T14:24:27.984Z,10.90
2019-01-18T14:27:05.855Z,8.07
2019-01-18T14:29:36.099Z,6.43
2019-01-18T14:32:06.426Z,9.80
2019-01-18T14:34:36.727Z,7.47
2019-01-18T14:37:07.047Z,3.83
2019-01-18T14:39:36.724Z,7.53
2019-01-18T14:42:06.964Z,8.27
2019-01-18T14:44:37.223Z,7.67
2019-01-18T14:47:07.467Z,19.60
2019-01-18T14:49:37.792Z,10.85
2019-01-18T14:52:07.473Z,7.67
2019-01-18T14:54:37.057Z,10.73
2019-01-18T14:57:07.346Z,11.30
2019-01-18T14:59:37.661Z,10.80
2019-01-18T15:02:07.371Z,8.97
2019-01-18T15:04:36.927Z,8.50
2019-01-18T15:07:08.501Z,6.57
2019-01-18T15:09:39.052Z,8.73
2019-01-18T15:12:09.408Z,6.40
2019-01-18T15:14:39.088Z,7.67
2019-01-18T15:17:09.331Z,11.17
2019-01-18T15:19:39.039Z,6.37
2019-01-18T15:22:09.280Z,11.13
2019-01-18T15:24:39.108Z,9.60
2019-01-18T15:27:09.332Z,5.93
2019-01-18T15:29:39.657Z,9.57
2019-01-18T15:32:09.347Z,4.40
2019-01-18T15:34:39.576Z,9.53
2019-01-18T15:37:09.311Z,10.03
2019-01-18T15:39:38.943Z,10.30
2019-01-18T15:42:09.204Z,4.83
2019-01-18T15:44:39.524Z,8.00
2019-01-18T15:47:09.296Z,7.17
2019-01-18T15:49:38.972Z,11.27
2019-01-18T15:52:08.678Z,6.97
2019-01-18T15:54:38.260Z,12.03
2019-01-18T15:57:08.036Z,22.67
2019-01-18T15:59:37.689Z,45.23
2019-01-18T16:02:08.140Z,32.63
2019-01-18T16:04:37.868Z,35.80
2019-01-18T16:07:08.260Z,44.50
2019-01-18T16:09:37.948Z,23.07
2019-01-18T16:12:07.540Z,41.97
2019-01-18T16:14:37.162Z,58.80
2019-01-18T16:17:12.096Z,105.13
2019-01-18T16:19:41.718Z,58.07
2019-01-18T16:22:11.612Z,70.70
2019-01-18T16:24:41.174Z,50.57
2019-01-18T16:27:10.759Z,33.60
2019-01-18T16:29:42.832Z,33.30
2019-01-18T16:32:12.556Z,30.07
2019-01-18T16:34:42.160Z,8.13
2019-01-18T16:37:30.788Z,15.60
2019-01-18T16:40:00.389Z,18.67
2019-01-18T16:42:30.015Z,11.03
2019-01-18T16:45:03.801Z,10.70
2019-01-18T16:47:34.052Z,11.80
2019-01-18T16:50:03.931Z,19.43
2019-01-18T16:52:33.510Z,11.77
2019-01-18T16:55:03.319Z,11.83
2019-01-18T16:57:32.892Z,7.43
2019-01-18T17:00:02.504Z,8.30
2019-01-18T17:02:32.095Z,11.43
2019-01-18T17:05:01.697Z,10.43
2019-01-18T17:07:31.976Z,9.83
2019-01-18T17:10:01.624Z,14.13
2019-01-18T17:12:31.215Z,8.03
2019-01-18T17:15:00.842Z,9.67
2019-01-18T17:17:30.463Z,7.00
2019-01-18T17:20:00.226Z,8.83
2019-01-18T17:22:29.820Z,11.03
2019-01-18T17:24:59.403Z,11.43
2019-01-18T17:27:29.015Z,8.15
2019-01-18T17:29:58.600Z,10.83
2019-01-18T17:32:28.865Z,11.03
2019-01-18T17:34:58.642Z,10.57
2019-01-18T17:37:33.812Z,13.80
2019-01-18T17:40:14.707Z,8.60
2019-01-18T17:43:05.567Z,15.63
2019-01-18T17:46:35.191Z,7.10
2019-01-18T17:49:09.553Z,8.80
2019-01-18T17:51:56.840Z,7.00
2019-01-18T17:54:47.756Z,7.07
2019-01-18T17:57:21.436Z,9.47
2019-01-18T18:00:10.383Z,5.20
2019-01-18T18:02:53.368Z,9.57
2019-01-18T18:05:37.125Z,14.30
2019-01-18T18:08:29.859Z,14.13
2019-01-18T18:11:28.585Z,9.37
2019-01-18T18:14:21.327Z,10.03
2019-01-18T18:17:10.903Z,11.20
2019-01-18T18:19:50.076Z,6.20
2019-01-18T18:22:32.728Z,10.20
2019-01-18T18:25:23.318Z,13.13
2019-01-18T18:28:33.419Z,4.97
2019-01-18T18:31:22.099Z,13.73
2019-01-18T18:34:27.756Z,12.00
2019-01-18T18:37:18.913Z,5.83
2019-01-18T18:40:29.080Z,8.27
2019-01-18T18:43:11.663Z,5.87
2019-01-18T18:46:03.304Z,6.80
2019-01-18T18:48:51.955Z,13.00
2019-01-18T18:51:38.746Z,11.03
2019-01-18T18:54:45.732Z,12.60
2019-01-18T18:57:52.549Z,8.77
2019-01-18T19:00:50.431Z,8.23
2019-01-18T19:03:27.555Z,9.50
2019-01-18T19:06:14.935Z,9.40
2019-01-18T19:09:24.762Z,13.47
2019-01-18T19:11:59.291Z,9.03
2019-01-18T19:14:36.000Z,10.30
2019-01-18T19:17:14.360Z,11.83
2019-01-18T19:20:09.058Z,13.23
2019-01-18T19:22:44.401Z,9.20
2019-01-18T19:25:53.432Z,10.47
2019-01-18T19:28:47.089Z,9.73
2019-01-18T19:31:45.665Z,9.60
2019-01-18T19:34:37.543Z,7.40
2019-01-18T19:37:24.680Z,9.70
2019-01-18T19:40:08.256Z,13.87
2019-01-18T19:42:55.908Z,11.70
2019-01-18T19:45:53.692Z,13.27
2019-01-18T19:48:54.270Z,12.10
2019-01-18T19:51:46.068Z,15.20
2019-01-18T19:54:20.308Z,13.13
2019-01-18T19:57:12.227Z,11.17
2019-01-18T19:59:49.853Z,12.67
2019-01-18T20:02:26.550Z,12.87
2019-01-18T20:05:14.174Z,9.40
2019-01-18T20:08:05.182Z,9.83
2019-01-18T20:10:52.578Z,8.77
2019-01-18T20:13:44.654Z,10.13
2019-01-18T20:16:32.173Z,11.80
2019-01-18T20:19:27.203Z,9.17
2019-01-18T20:22:28.166Z,8.40
2019-01-18T20:25:35.212Z,6.97
2019-01-18T20:28:33.192Z,13.17
2019-01-18T20:31:22.710Z,7.00
2019-01-18T20:34:26.277Z,6.73
2019-01-18T20:37:19.347Z,8.13
2019-01-18T20:39:56.080Z,28.00
2019-01-18T20:42:50.220Z,49.83
2019-01-18T20:45:25.213Z,42.07
2019-01-18T20:48:29.098Z,13.03
2019-01-18T20:51:04.678Z,11.43
2019-01-18T20:53:58.323Z,19.20
2019-01-18T20:56:47.041Z,14.20
2019-01-18T20:59:34.934Z,8.27
2019-01-18T21:02:15.481Z,8.83
2019-01-18T21:05:05.244Z,14.13
2019-01-18T21:07:48.209Z,8.20
2019-01-18T21:11:01.931Z,14.17
2019-01-18T21:14:15.354Z,8.00
2019-01-18T21:17:02.837Z,8.83
2019-01-18T21:19:46.474Z,8.97
2019-01-18T21:22:38.622Z,10.87
2019-01-18T21:25:26.504Z,10.03
2019-01-18T21:28:32.827Z,9.13
2019-01-18T21:31:31.142Z,11.87
2019-01-18T21:34:19.784Z,7.73
2019-01-18T21:37:11.415Z,7.90
2019-01-18T21:39:55.066Z,12.60
2019-01-18T21:42:42.658Z,12.17
2019-01-18T21:45:37.399Z,11.83
2019-01-18T21:48:34.701Z,6.20
2019-01-18T21:51:27.295Z,10.33
2019-01-18T21:54:40.655Z,12.63
2019-01-18T21:57:29.182Z,12.90
2019-01-18T22:00:02.877Z,13.00
2019-01-18T22:02:51.506Z,13.93
2019-01-18T22:05:46.203Z,10.03
2019-01-18T22:08:56.113Z,7.70
2019-01-18T22:12:08.422Z,11.17
2019-01-18T22:15:00.089Z,8.10
2019-01-18T22:17:43.341Z,13.60
2019-01-18T22:20:18.695Z,11.80
2019-01-18T22:23:03.269Z,10.70
2019-01-18T22:25:37.956Z,10.13
2019-01-18T22:28:42.951Z,10.50
2019-01-18T22:31:47.096Z,10.73
2019-01-18T22:34:35.754Z,7.17
2019-01-18T22:37:44.140Z,10.10
2019-01-18T22:40:54.282Z,16.03
2019-01-18T22:43:36.508Z,12.07
2019-01-18T22:46:49.768Z,13.93
2019-01-18T22:49:37.932Z,12.37
2019-01-18T22:52:17.532Z,20.43
2019-01-18T22:55:23.304Z,11.60
2019-01-18T22:58:34.652Z,14.80
2019-01-18T23:01:36.940Z,9.37
2019-01-18T23:04:38.536Z,11.93
2019-01-18T23:07:44.888Z,12.70
2019-01-18T23:10:38.452Z,11.73
2019-01-18T23:13:48.990Z,10.33
2019-01-18T23:17:05.309Z,16.57
2019-01-18T23:19:51.323Z,9.50
2019-01-18T23:22:55.602Z,11.43
2019-01-18T23:25:55.399Z,11.63
2019-01-18T23:29:08.648Z,15.37
2019-01-18T23:32:23.224Z,14.47
2019-01-18T23:35:18.345Z,8.43
2019-01-18T23:38:08.641Z,10.03
2019-01-18T23:41:26.451Z,12.23
2019-01-18T23:44:10.938Z,8.67
2019-01-18T23:47:07.801Z,12.67
2019-01-18T23:49:57.609Z,7.73
2019-01-18T23:53:15.034Z,8.90
2019-01-18T23:55:51.988Z,13.13
2019-01-18T23:58:46.783Z,8.70
